Latest Coastal Weather Observations for Fawkner Beacon

IDV60701

Issued at 7:02 pm EST Thursday 30 May 2024 (issued every 10 minutes, with the page automatically refreshed every 10 minutes)

About coastal observations | Map of coastal stations | Coastal observations for VIC | Marine services | Other Formats
Station Details ID: 086376 Name: FAWKNER BEACON Lat: -37.95 Lon: 144.93 Height: 17.0 m
Data from the previous 72 hours. | See also: Recent months at Fawkner Beacon
Date/Time
EST
Wind Sea
Height
m
Swell Vis
km
Cloud Weather Temp
°C
Press
MSL
hPa
Rain since
9am
mm
Dir  Spd
kts
Gust
kts
Height
m
Period
s
Dir
30/07:00pm N 17 21 - - - - - - - - - -
30/06:30pm N 20 24 - - - - - - - - - -
30/06:00pm N 20 25 - - - - - - - - - -
30/05:30pm N 22 26 - - - - - - - - - -
30/05:00pm N 25 34 - - - - - - - - - -
30/04:40pm N 27 38 - - - - - - - - - -
30/04:30pm N 30 38 - - - - - - - - - -
30/04:13pm N 26 37 - - - - - - - - - -
30/04:11pm N 26 34 - - - - - - - - - -
30/04:00pm N 33 44 - - - - - - - - - -
30/03:56pm N 34 44 - - - - - - - - - -
30/03:52pm N 33 39 - - - - - - - - - -
30/03:35pm N 24 34 - - - - - - - - - -
30/03:30pm N 25 31 - - - - - - - - - -
30/03:00pm N 25 32 - - - - - - - - - -
30/02:30pm N 25 31 - - - - - - - - - -
30/02:00pm N 24 29 - - - - - - - - - -
30/01:30pm N 26 33 - - - - - - - - - -
30/01:18pm N 26 36 - - - - - - - - - -
30/01:00pm N 25 31 - - - - - - - - - -
30/12:30pm N 27 35 - - - - - - - - - -
30/12:24pm N 27 34 - - - - - - - - - -
30/12:22pm N 27 33 - - - - - - - - - -
30/12:00pm N 25 31 - - - - - - - - - -
30/11:30am N 25 29 - - - - - - - - - -
30/11:00am N 31 42 - - - - - - - - - -
30/10:31am N 35 45 - - - - - - - - - -
30/10:30am N 36 45 - - - - - - - - - -
30/10:03am N 31 42 - - - - - - - - - -
30/10:00am N 29 37 - - - - - - - - - -
30/09:53am N 26 36 - - - - - - - - - -
30/09:30am N 28 35 - - - - - - - - - -
30/09:00am N 29 37 - - - - - - - - - -
30/08:41am N 27 37 - - - - - - - - - -
30/08:30am N 25 32 - - - - - - - - - -
30/08:00am N 26 35 - - - - - - - - - -
30/07:30am N 26 33 - - - - - - - - - -
30/07:00am N 27 35 - - - - - - - - - -
30/06:30am N 27 33 - - - - - - - - - -
30/06:00am N 24 31 - - - - - - - - - -
30/05:30am N 25 29 - - - - - - - - - -
30/05:00am N 26 31 - - - - - - - - - -
30/04:30am N 25 29 - - - - - - - - - -
30/04:00am N 27 33 - - - - - - - - - -
30/03:30am N 26 32 - - - - - - - - - -
30/03:00am N 24 31 - - - - - - - - - -
30/02:30am N 26 32 - - - - - - - - - -
30/02:15am N 22 32 - - - - - - - - - -
30/02:00am N 15 21 - - - - - - - - - -
30/01:30am N 10 16 - - - - - - - - - -
30/01:00am N 16 21 - - - - - - - - - -
30/12:30am N 17 23 - - - - - - - - - -
30/12:00am N 18 24 - - - - - - - - - -
 
Date/Time
EST
Wind Sea
Height
m
Swell Vis
km
Cloud Weather Temp
°C
Press
MSL
hPa
Rain since
9am
mm
Dir  Spd
kts
Gust
kts
Height
m
Period
s
Dir
29/11:30pm N 17 19 - - - - - - - - - -
29/11:00pm N 17 24 - - - - - - - - - -
29/10:30pm N 19 26 - - - - - - - - - -
29/10:00pm N 15 18 - - - - - - - - - -
29/09:30pm N 21 25 - - - - - - - - - -
29/09:00pm N 16 22 - - - - - - - - - -
29/08:30pm N 17 19 - - - - - - - - - -
29/08:00pm N 14 19 - - - - - - - - - -
29/07:30pm N 13 16 - - - - - - - - - -
29/07:00pm N 17 22 - - - - - - - - - -
29/06:30pm N 19 24 - - - - - - - - - -
29/06:00pm N 16 19 - - - - - - - - - -
29/05:30pm N 17 21 - - - - - - - - - -
29/05:00pm N 23 27 - - - - - - - - - -
29/04:30pm N 25 29 - - - - - - - - - -
29/04:00pm N 27 36 - - - - - - - - - -
29/03:30pm N 25 32 - - - - - - - - - -
29/03:00pm N 23 29 - - - - - - - - - -
29/02:30pm N 28 35 - - - - - - - - - -
29/02:00pm N 28 34 - - - - - - - - - -
29/01:30pm N 29 34 - - - - - - - - - -
29/01:00pm N 29 36 - - - - - - - - - -
29/12:30pm N 27 34 - - - - - - - - - -
29/12:00pm N 24 32 - - - - - - - - - -
29/11:30am N 26 32 - - - - - - - - - -
29/11:00am N 19 24 - - - - - - - - - -
29/10:30am N 18 22 - - - - - - - - - -
29/10:00am N 21 25 - - - - - - - - - -
29/09:30am N 20 24 - - - - - - - - - -
29/09:00am N 21 24 - - - - - - - - - -
29/08:30am N 20 24 - - - - - - - - - -
29/08:00am N 21 25 - - - - - - - - - -
29/07:30am N 21 24 - - - - - - - - - -
29/07:00am N 18 21 - - - - - - - - - -
29/06:30am N 17 21 - - - - - - - - - -
29/06:00am N 17 19 - - - - - - - - - -
29/05:30am N 14 17 - - - - - - - - - -
29/05:00am N 16 18 - - - - - - - - - -
29/04:30am N 18 23 - - - - - - - - - -
29/04:00am N 14 19 - - - - - - - - - -
29/03:30am N 14 16 - - - - - - - - - -
29/03:00am N 10 12 - - - - - - - - - -
29/02:30am N 12 17 - - - - - - - - - -
29/02:00am NNE 8 11 - - - - - - - - - -
29/01:30am NNE 11 13 - - - - - - - - - -
29/01:00am N 10 13 - - - - - - - - - -
29/12:30am N 11 13 - - - - - - - - - -
29/12:00am N 13 14 - - - - - - - - - -
 
Date/Time
EST
Wind Sea
Height
m
Swell Vis
km
Cloud Weather Temp
°C
Press
MSL
hPa
Rain since
9am
mm
Dir  Spd
kts
Gust
kts
Height
m
Period
s
Dir
28/11:30pm N 14 17 - - - - - - - - - -
28/11:00pm N 15 17 - - - - - - - - - -
28/10:30pm N 14 16 - - - - - - - - - -
28/10:00pm N 11 12 - - - - - - - - - -
28/09:30pm N 12 13 - - - - - - - - - -
28/09:00pm N 8 12 - - - - - - - - - -
28/08:30pm N 10 12 - - - - - - - - - -
28/08:00pm N 11 13 - - - - - - - - - -
28/07:30pm N 11 13 - - - - - - - - - -
28/07:00pm N 15 17 - - - - - - - - - -
28/06:30pm N 14 17 - - - - - - - - - -
28/06:00pm NNE 14 16 - - - - - - - - - -
28/05:30pm NNE 14 15 - - - - - - - - - -
28/05:00pm NNE 14 16 - - - - - - - - - -
28/04:30pm NNE 15 16 - - - - - - - - - -
28/04:00pm NNE 14 15 - - - - - - - - - -
28/03:30pm NNE 13 14 - - - - - - - - - -
28/03:00pm NNE 12 13 - - - - - - - - - -
28/02:30pm NNE 12 13 - - - - - - - - - -
28/02:00pm NNE 13 14 - - - - - - - - - -
28/01:30pm NNE 12 13 - - - - - - - - - -
28/01:00pm NNE 11 12 - - - - - - - - - -
28/12:30pm N 10 12 - - - - - - - - - -
28/12:00pm N 9 11 - - - - - - - - - -
28/11:30am N 12 13 - - - - - - - - - -
28/11:00am N 12 14 - - - - - - - - - -
28/10:30am NNE 13 15 - - - - - - - - - -
28/10:00am N 15 16 - - - - - - - - - -
28/09:30am N 13 15 - - - - - - - - - -
28/09:00am N 13 14 - - - - - - - - - -
28/08:30am N 12 14 - - - - - - - - - -
28/08:00am N 14 15 - - - - - - - - - -
28/07:30am N 11 13 - - - - - - - - - -
28/07:00am N 13 14 - - - - - - - - - -
28/06:30am N 14 15 - - - - - - - - - -
28/06:00am NNE 14 16 - - - - - - - - - -
28/05:30am NNE 14 16 - - - - - - - - - -
28/05:00am N 13 15 - - - - - - - - - -
28/04:30am NNE 12 13 - - - - - - - - - -
28/04:00am N 12 14 - - - - - - - - - -
28/03:30am N 11 13 - - - - - - - - - -
28/03:00am NNE 11 13 - - - - - - - - - -
28/02:30am N 12 14 - - - - - - - - - -
28/02:00am N 11 13 - - - - - - - - - -
28/01:30am N 12 14 - - - - - - - - - -
28/01:00am N 10 12 - - - - - - - - - -
28/12:30am N 9 11 - - - - - - - - - -
28/12:00am N 10 12 - - - - - - - - - -
 
Date/Time
EST
Wind Sea
Height
m
Swell Vis
km
Cloud Weather Temp
°C
Press
MSL
hPa
Rain since
9am
mm
Dir  Spd
kts
Gust
kts
Height
m
Period
s
Dir
27/11:30pm N 10 12 - - - - - - - - - -
27/11:00pm N 10 11 - - - - - - - - - -
27/10:30pm N 10 12 - - - - - - - - - -
27/10:00pm N 10 12 - - - - - - - - - -
27/09:30pm N 11 12 - - - - - - - - - -
27/09:00pm N 10 12 - - - - - - - - - -
27/08:30pm N 11 12 - - - - - - - - - -
27/08:00pm N 14 16 - - - - - - - - - -
27/07:30pm N 11 13 - - - - - - - - - -

Other formats

Comma delimited format used in spreadsheet applications
http://www.bom.gov.au/fwo/IDV60701/IDV60701.95872.axf

JavaScript Object Notation format (JSON) in row-major order
http://www.bom.gov.au/fwo/IDV60701/IDV60701.95872.json

Data quality

Most of these data are generated automatically and are frequently updated. Quality checks on data are not normally performed. It is possible for incorrect values to appear. Refer to information at About Latest Weather Observations and please check the disclaimer before using these data.